createdAt,value
2017-09-02T00:01:41.199Z,34.00
2017-09-02T00:04:08.802Z,33.40
2017-09-02T00:06:36.406Z,34.17
2017-09-02T00:09:03.972Z,30.53
2017-09-02T00:11:31.538Z,37.40
2017-09-02T00:13:59.152Z,31.73
2017-09-02T00:16:26.840Z,31.90
2017-09-02T00:18:54.434Z,36.03
2017-09-02T00:21:22.021Z,33.40
2017-09-02T00:23:49.574Z,33.27
2017-09-02T00:26:17.164Z,32.40
2017-09-02T00:28:44.733Z,33.80
2017-09-02T00:31:12.286Z,31.00
2017-09-02T00:33:39.882Z,31.23
2017-09-02T00:36:07.518Z,28.43
2017-09-02T00:38:35.101Z,28.20
2017-09-02T00:41:02.680Z,31.57
2017-09-02T00:43:30.260Z,35.20
2017-09-02T00:45:57.829Z,30.50
2017-09-02T00:48:25.469Z,29.03
2017-09-02T00:50:53.159Z,26.30
2017-09-02T00:53:20.761Z,29.63
2017-09-02T00:55:48.310Z,29.10
2017-09-02T00:58:15.899Z,29.67
2017-09-02T01:00:43.578Z,33.23
2017-09-02T01:03:11.142Z,29.10
2017-09-02T01:05:38.758Z,31.77
2017-09-02T01:08:06.390Z,33.70
2017-09-02T01:10:33.994Z,36.40
2017-09-02T01:13:01.568Z,30.43
2017-09-02T01:15:29.203Z,31.00
2017-09-02T01:17:56.763Z,31.17
2017-09-02T01:20:24.406Z,29.50
2017-09-02T01:22:51.999Z,36.70
2017-09-02T01:25:19.590Z,28.53
2017-09-02T01:27:47.175Z,35.47
2017-09-02T01:30:20.265Z,34.10
2017-09-02T01:32:47.858Z,32.67
2017-09-02T01:35:15.446Z,31.67
2017-09-02T01:37:43.002Z,34.37
2017-09-02T01:40:10.630Z,35.13
2017-09-02T01:42:38.215Z,31.53
2017-09-02T01:45:05.801Z,32.53
2017-09-02T01:47:33.385Z,35.93
2017-09-02T01:50:00.972Z,32.97
2017-09-02T01:52:28.535Z,32.60
2017-09-02T01:54:56.131Z,36.00
2017-09-02T01:57:23.702Z,37.70
2017-09-02T01:59:51.308Z,37.60
2017-09-02T02:02:18.884Z,37.50
2017-09-02T02:04:46.458Z,31.33
2017-09-02T02:07:14.037Z,33.37
2017-09-02T02:09:41.607Z,32.93
2017-09-02T02:12:09.280Z,34.15
2017-09-02T02:14:36.875Z,40.38
2017-09-02T02:17:04.453Z,36.33
2017-09-02T02:19:32.050Z,41.10
2017-09-02T02:21:59.686Z,41.97
2017-09-02T02:24:27.248Z,40.57
2017-09-02T02:26:54.839Z,51.00
2017-09-02T02:29:22.440Z,50.38
2017-09-02T02:31:50.126Z,47.10
2017-09-02T02:34:17.760Z,55.20
2017-09-02T02:36:45.357Z,52.37
2017-09-02T02:39:12.918Z,46.80
2017-09-02T02:41:40.492Z,50.20
2017-09-02T02:44:08.278Z,49.90
2017-09-02T02:46:35.845Z,39.30
2017-09-02T02:49:03.584Z,37.50
2017-09-02T02:51:31.155Z,30.90
2017-09-02T02:53:58.755Z,32.27
2017-09-02T02:56:26.426Z,27.53
2017-09-02T02:58:54.022Z,28.07
2017-09-02T03:01:21.576Z,31.37
2017-09-02T03:03:49.317Z,26.80
2017-09-02T03:06:17.249Z,27.97
2017-09-02T03:08:44.902Z,38.38
2017-09-02T03:11:12.530Z,30.90
2017-09-02T03:13:40.125Z,29.58
2017-09-02T03:16:07.716Z,33.80
2017-09-02T03:18:35.284Z,32.53
2017-09-02T03:21:02.925Z,32.75
2017-09-02T03:23:30.493Z,39.22
2017-09-02T03:25:58.167Z,40.80
2017-09-02T03:28:25.737Z,41.53
2017-09-02T03:30:53.298Z,34.95
2017-09-02T03:33:20.888Z,36.47
2017-09-02T03:35:48.530Z,30.53
2017-09-02T03:38:16.190Z,38.63
2017-09-02T03:40:43.810Z,31.77
2017-09-02T03:43:11.380Z,34.42
2017-09-02T03:45:38.985Z,34.77
2017-09-02T03:48:06.545Z,38.47
2017-09-02T03:50:34.176Z,35.87
2017-09-02T03:53:01.762Z,34.93
2017-09-02T03:55:29.338Z,33.40
2017-09-02T03:57:56.976Z,43.87
2017-09-02T04:00:24.558Z,38.90
2017-09-02T04:02:52.498Z,45.13
2017-09-02T04:05:20.090Z,35.65
2017-09-02T04:07:47.718Z,44.97
2017-09-02T04:10:15.320Z,36.92
2017-09-02T04:12:42.889Z,41.47
2017-09-02T04:15:10.494Z,37.53
2017-09-02T04:17:38.053Z,37.13
2017-09-02T04:20:05.662Z,39.03
2017-09-02T04:22:33.239Z,41.30
2017-09-02T04:25:00.814Z,38.10
2017-09-02T04:27:28.418Z,34.50
2017-09-02T04:29:56.006Z,32.63
2017-09-02T04:32:23.599Z,38.33
2017-09-02T04:34:51.169Z,39.95
2017-09-02T04:37:18.743Z,36.65
2017-09-02T04:39:46.334Z,37.00
2017-09-02T04:42:13.988Z,37.80
2017-09-02T04:44:41.565Z,36.80
2017-09-02T04:47:09.147Z,40.60
2017-09-02T04:49:36.729Z,36.10
2017-09-02T04:52:04.323Z,34.13
2017-09-02T04:54:31.903Z,33.42
2017-09-02T04:56:59.546Z,36.77
2017-09-02T04:59:27.116Z,37.43
2017-09-02T05:01:54.718Z,38.37
2017-09-02T05:04:22.274Z,33.60
2017-09-02T05:06:49.857Z,34.30
2017-09-02T05:09:17.422Z,34.90
2017-09-02T05:11:44.986Z,30.90
2017-09-02T05:14:12.579Z,34.07
2017-09-02T05:16:40.177Z,32.60
2017-09-02T05:19:07.768Z,32.50
2017-09-02T05:21:35.332Z,28.53
2017-09-02T05:24:02.959Z,31.27
2017-09-02T05:26:30.531Z,34.83
2017-09-02T05:28:58.085Z,39.97
2017-09-02T05:31:25.674Z,35.57
2017-09-02T05:33:53.243Z,31.53
2017-09-02T05:36:20.842Z,36.63
2017-09-02T05:38:48.415Z,33.43
2017-09-02T05:41:16.001Z,33.60
2017-09-02T05:43:43.582Z,31.87
2017-09-02T05:46:11.172Z,30.43
2017-09-02T05:48:38.755Z,35.47
2017-09-02T05:51:06.348Z,32.60
2017-09-02T05:53:33.938Z,33.97
2017-09-02T05:56:01.498Z,33.80
2017-09-02T05:58:29.102Z,35.17
2017-09-02T06:00:56.671Z,31.13
2017-09-02T06:03:24.242Z,38.40
2017-09-02T06:05:51.816Z,32.10
2017-09-02T06:08:19.437Z,32.77
2017-09-02T06:10:47.147Z,31.70
2017-09-02T06:13:14.729Z,36.33
2017-09-02T06:15:42.344Z,30.27
2017-09-02T06:18:09.944Z,30.67
2017-09-02T06:20:37.543Z,30.03
2017-09-02T06:23:05.115Z,29.63
2017-09-02T06:25:32.694Z,28.93
2017-09-02T06:28:00.295Z,29.40
2017-09-02T06:30:27.857Z,28.97
2017-09-02T06:32:55.431Z,29.23
2017-09-02T06:35:23.035Z,32.43
2017-09-02T06:37:50.608Z,29.70
2017-09-02T06:40:18.187Z,32.10
2017-09-02T06:42:45.759Z,28.93
2017-09-02T06:45:13.414Z,29.50
2017-09-02T06:47:41.834Z,25.97
2017-09-02T06:50:09.401Z,28.60
2017-09-02T06:52:36.981Z,29.03
2017-09-02T06:55:04.549Z,27.43
2017-09-02T06:57:32.156Z,25.03
2017-09-02T06:59:59.739Z,25.07
2017-09-02T07:02:27.346Z,24.57
2017-09-02T07:04:54.910Z,25.10
2017-09-02T07:07:22.493Z,23.53
2017-09-02T07:09:50.245Z,23.50
2017-09-02T07:12:18.778Z,21.40
2017-09-02T07:14:46.371Z,25.07
2017-09-02T07:17:13.942Z,21.30
2017-09-02T07:19:41.873Z,19.27
2017-09-02T07:22:09.437Z,17.17
2017-09-02T07:24:37.073Z,20.17
2017-09-02T07:27:04.652Z,22.73
2017-09-02T07:29:32.227Z,21.03
2017-09-02T07:31:59.807Z,21.17
2017-09-02T07:34:27.387Z,25.50
2017-09-02T07:36:55.190Z,22.47
2017-09-02T07:39:22.788Z,23.13
2017-09-02T07:41:50.359Z,22.87
2017-09-02T07:44:17.970Z,25.97
2017-09-02T07:46:45.533Z,25.60
2017-09-02T07:49:13.214Z,28.33
2017-09-02T07:51:40.774Z,27.17
2017-09-02T07:54:08.335Z,27.87
2017-09-02T07:56:35.934Z,30.37
2017-09-02T07:59:03.491Z,29.10
2017-09-02T08:01:31.068Z,28.33
2017-09-02T08:03:58.642Z,28.83
2017-09-02T08:06:26.202Z,34.30
2017-09-02T08:08:53.798Z,32.53
2017-09-02T08:11:21.401Z,32.17
2017-09-02T08:13:49.008Z,30.43
2017-09-02T08:16:16.583Z,31.87
2017-09-02T08:18:44.184Z,33.47
2017-09-02T08:21:11.842Z,32.10
2017-09-02T08:23:39.431Z,33.03
2017-09-02T08:26:07.035Z,29.20
2017-09-02T08:28:34.659Z,27.20
2017-09-02T08:31:02.235Z,27.37
2017-09-02T08:33:29.845Z,29.80
2017-09-02T08:35:57.652Z,30.03
2017-09-02T08:38:25.276Z,28.63
2017-09-02T08:40:52.857Z,26.23
2017-09-02T08:43:20.441Z,24.63
2017-09-02T08:45:48.035Z,23.03
2017-09-02T08:48:15.596Z,25.97
2017-09-02T08:50:43.219Z,26.60
2017-09-02T08:53:10.816Z,23.53
2017-09-02T08:55:38.409Z,24.60
2017-09-02T08:58:06.030Z,24.07
2017-09-02T09:00:33.635Z,24.77
2017-09-02T09:03:01.253Z,22.80
2017-09-02T09:05:28.850Z,22.50
2017-09-02T09:07:56.448Z,23.83
2017-09-02T09:10:24.058Z,25.00
2017-09-02T09:12:51.654Z,24.47
2017-09-02T09:15:19.321Z,20.17
2017-09-02T09:17:46.977Z,17.17
2017-09-02T09:20:14.595Z,15.33
2017-09-02T09:22:42.151Z,14.30
2017-09-02T09:25:09.762Z,15.17
2017-09-02T09:27:37.359Z,13.90
2017-09-02T09:30:05.103Z,14.60
2017-09-02T09:32:32.691Z,15.53
2017-09-02T09:35:00.266Z,13.43
2017-09-02T09:37:27.887Z,13.37
2017-09-02T09:39:55.462Z,13.80
2017-09-02T09:42:23.070Z,14.77
2017-09-02T09:44:50.670Z,15.87
2017-09-02T09:47:19.063Z,13.73
2017-09-02T09:49:46.659Z,11.90
2017-09-02T09:52:14.214Z,13.40
2017-09-02T09:54:41.807Z,10.47
2017-09-02T09:57:09.386Z,10.87
2017-09-02T09:59:36.968Z,8.67
2017-09-02T10:02:04.551Z,8.93
2017-09-02T10:04:32.122Z,10.10
2017-09-02T10:06:59.783Z,10.10
2017-09-02T10:09:27.366Z,9.93
2017-09-02T10:11:55.026Z,9.07
2017-09-02T10:14:22.605Z,9.83
2017-09-02T10:16:50.181Z,8.90
2017-09-02T10:19:17.778Z,9.63
2017-09-02T10:21:45.335Z,8.30
2017-09-02T10:24:12.938Z,9.73
2017-09-02T10:26:40.965Z,8.70
2017-09-02T10:29:08.768Z,9.13
2017-09-02T10:31:36.446Z,8.50
2017-09-02T10:34:04.011Z,9.40
2017-09-02T10:36:31.612Z,8.07
2017-09-02T10:38:59.179Z,8.90
2017-09-02T10:41:26.767Z,7.43
2017-09-02T10:43:54.346Z,9.10
2017-09-02T10:46:21.913Z,9.33
2017-09-02T10:48:49.490Z,9.03
2017-09-02T10:51:17.121Z,9.27
2017-09-02T10:53:44.715Z,9.43
2017-09-02T10:56:12.313Z,7.67
2017-09-02T10:58:39.910Z,7.77
2017-09-02T11:01:07.545Z,8.33
2017-09-02T11:03:35.153Z,8.00
2017-09-02T11:06:02.763Z,8.33
2017-09-02T11:08:30.504Z,7.47
2017-09-02T11:10:58.078Z,8.33
2017-09-02T11:13:25.678Z,7.60
2017-09-02T11:15:53.260Z,8.33
2017-09-02T11:18:20.910Z,7.97
2017-09-02T11:20:48.504Z,9.20
2017-09-02T11:23:16.112Z,7.10
2017-09-02T11:25:43.708Z,8.40
2017-09-02T11:28:12.219Z,8.30
2017-09-02T11:30:39.784Z,10.80
2017-09-02T11:33:07.347Z,11.20
2017-09-02T11:35:34.936Z,15.10
2017-09-02T11:38:02.511Z,12.00
2017-09-02T11:40:30.086Z,14.13
2017-09-02T11:42:57.685Z,16.40
2017-09-02T11:45:25.280Z,16.73
2017-09-02T11:47:52.879Z,16.17
2017-09-02T11:50:20.489Z,15.03
2017-09-02T11:52:48.083Z,18.03
2017-09-02T11:55:15.754Z,18.10
2017-09-02T11:57:43.372Z,16.97
2017-09-02T12:00:10.937Z,16.63
2017-09-02T12:02:38.544Z,13.03
2017-09-02T12:05:06.130Z,20.93
2017-09-02T12:07:33.726Z,15.73
2017-09-02T12:10:01.311Z,15.07
2017-09-02T12:12:28.872Z,15.80
2017-09-02T12:14:56.467Z,14.13
2017-09-02T12:17:24.101Z,13.53
2017-09-02T12:19:51.685Z,12.70
2017-09-02T12:22:19.248Z,16.57
2017-09-02T12:24:46.882Z,12.37
2017-09-02T12:27:14.460Z,11.87
2017-09-02T12:29:42.056Z,13.90
2017-09-02T12:32:09.645Z,11.57
2017-09-02T12:34:37.223Z,12.50
2017-09-02T12:37:04.834Z,10.23
2017-09-02T12:39:32.850Z,11.03
2017-09-02T12:42:00.458Z,10.43
2017-09-02T12:44:28.027Z,9.47
2017-09-02T12:46:55.665Z,8.50
2017-09-02T12:49:23.325Z,8.80
2017-09-02T12:51:51.847Z,10.27
2017-09-02T12:54:19.486Z,12.40
2017-09-02T12:56:47.166Z,11.97
2017-09-02T12:59:14.776Z,11.60
2017-09-02T13:01:42.371Z,12.23
2017-09-02T13:04:09.970Z,14.70
2017-09-02T13:06:37.543Z,10.93
2017-09-02T13:09:05.152Z,14.53
2017-09-02T13:11:32.739Z,12.90
2017-09-02T13:14:00.333Z,12.67
2017-09-02T13:16:27.962Z,11.90
2017-09-02T13:18:55.578Z,15.37
2017-09-02T13:21:23.145Z,12.07
2017-09-02T13:23:50.736Z,12.73
2017-09-02T13:26:18.316Z,11.33
2017-09-02T13:28:45.907Z,12.33
2017-09-02T13:31:13.477Z,11.47
2017-09-02T13:33:41.066Z,10.60
2017-09-02T13:36:08.670Z,11.33
2017-09-02T13:38:36.254Z,12.17
2017-09-02T13:41:03.824Z,7.97
2017-09-02T13:43:31.407Z,4.70
2017-09-02T13:45:58.997Z,8.90
2017-09-02T13:48:26.564Z,8.47
2017-09-02T13:50:54.180Z,3.60
2017-09-02T13:53:21.803Z,3.63
2017-09-02T13:55:49.341Z,4.23
2017-09-02T13:58:16.940Z,5.37
2017-09-02T14:00:44.506Z,3.57
2017-09-02T14:03:12.089Z,4.40
2017-09-02T14:05:39.670Z,6.17
2017-09-02T14:08:07.246Z,9.73
2017-09-02T14:10:34.835Z,8.50
2017-09-02T14:13:02.532Z,6.20
2017-09-02T14:15:30.099Z,5.20
2017-09-02T14:17:57.678Z,7.00
2017-09-02T14:20:25.311Z,10.77
2017-09-02T14:22:52.858Z,6.27
2017-09-02T14:25:20.439Z,6.17
2017-09-02T14:27:48.009Z,7.00
2017-09-02T14:30:15.634Z,4.80
2017-09-02T14:32:43.219Z,4.90
2017-09-02T14:35:10.862Z,5.60
2017-09-02T14:37:38.452Z,4.53
2017-09-02T14:40:06.014Z,4.97
2017-09-02T14:42:33.587Z,6.50
2017-09-02T14:45:01.338Z,4.57
2017-09-02T14:47:28.922Z,4.93
2017-09-02T14:49:56.530Z,4.10
2017-09-02T14:52:24.120Z,3.20
2017-09-02T14:54:51.690Z,3.53
2017-09-02T14:57:19.293Z,4.23
2017-09-02T14:59:46.838Z,6.23
2017-09-02T15:02:14.452Z,3.57
2017-09-02T15:04:42.005Z,4.07
2017-09-02T15:07:09.598Z,4.40
2017-09-02T15:09:37.192Z,6.03
2017-09-02T15:12:04.972Z,3.80
2017-09-02T15:14:32.651Z,3.47
2017-09-02T15:17:00.217Z,5.90
2017-09-02T15:19:27.797Z,4.37
2017-09-02T15:21:55.372Z,3.30
2017-09-02T15:24:22.955Z,5.93
2017-09-02T15:26:50.543Z,3.70
2017-09-02T15:29:18.139Z,4.87
2017-09-02T15:31:45.702Z,5.80
2017-09-02T15:34:13.258Z,5.30
2017-09-02T15:36:40.918Z,7.67
2017-09-02T15:39:08.551Z,8.93
2017-09-02T15:41:36.153Z,3.57
2017-09-02T15:44:03.725Z,5.80
2017-09-02T15:46:31.315Z,5.77
2017-09-02T15:48:58.894Z,4.43
2017-09-02T15:51:26.455Z,4.50
2017-09-02T15:53:54.047Z,5.97
2017-09-02T15:56:21.613Z,5.87
2017-09-02T15:58:49.180Z,4.13
2017-09-02T16:01:16.899Z,4.07
2017-09-02T16:03:44.495Z,4.00
2017-09-02T16:06:12.081Z,4.80
2017-09-02T16:08:39.653Z,4.90
2017-09-02T16:11:07.258Z,5.37
2017-09-02T16:13:34.958Z,6.13
2017-09-02T16:16:02.535Z,5.10
2017-09-02T16:18:30.103Z,3.33
2017-09-02T16:20:57.692Z,3.87
2017-09-02T16:23:25.262Z,3.20
2017-09-02T16:25:52.831Z,4.10
2017-09-02T16:28:20.397Z,3.00
2017-09-02T16:30:48.081Z,5.70
2017-09-02T16:33:15.653Z,2.50
2017-09-02T16:35:43.207Z,2.83
2017-09-02T16:38:10.840Z,3.83
2017-09-02T16:40:38.420Z,6.60
2017-09-02T16:43:06.055Z,3.87
2017-09-02T16:45:33.652Z,3.33
2017-09-02T16:48:01.230Z,4.93
2017-09-02T16:50:28.798Z,3.90
2017-09-02T16:52:56.430Z,4.20
2017-09-02T16:55:24.400Z,3.30
2017-09-02T16:57:52.165Z,5.03
2017-09-02T17:00:19.738Z,4.90
2017-09-02T17:02:47.433Z,5.57
2017-09-02T17:05:15.775Z,3.70
2017-09-02T17:07:43.338Z,3.80
2017-09-02T17:10:10.914Z,6.90
2017-09-02T17:12:38.500Z,3.90
2017-09-02T17:15:06.064Z,3.33
2017-09-02T17:17:33.931Z,4.93
2017-09-02T17:20:01.536Z,9.17
2017-09-02T17:22:29.090Z,4.60
2017-09-02T17:24:56.662Z,4.03
2017-09-02T17:27:24.242Z,4.50
2017-09-02T17:29:51.816Z,3.90
2017-09-02T17:32:19.398Z,4.00
2017-09-02T17:34:46.979Z,5.23
2017-09-02T17:37:14.547Z,5.57
2017-09-02T17:39:42.134Z,4.30
2017-09-02T17:42:09.719Z,4.23
2017-09-02T17:44:37.294Z,5.47
2017-09-02T17:47:04.886Z,6.93
2017-09-02T17:49:32.577Z,4.60
2017-09-02T17:52:00.172Z,3.93
2017-09-02T17:54:27.767Z,5.80
2017-09-02T17:56:55.343Z,4.80
2017-09-02T17:59:22.952Z,4.17
2017-09-02T18:01:50.570Z,4.50
2017-09-02T18:04:18.151Z,9.97
2017-09-02T18:06:45.739Z,6.63
2017-09-02T18:09:13.339Z,5.90
2017-09-02T18:11:40.918Z,5.20
2017-09-02T18:14:08.479Z,8.07
2017-09-02T18:16:36.111Z,6.20
2017-09-02T18:19:03.710Z,9.73
2017-09-02T18:21:32.081Z,8.50
2017-09-02T18:23:59.658Z,7.10
2017-09-02T18:26:27.375Z,14.03
2017-09-02T18:28:55.582Z,11.50
2017-09-02T18:31:23.114Z,9.63
2017-09-02T18:33:50.732Z,13.23
2017-09-02T18:36:18.327Z,14.70
2017-09-02T18:38:45.911Z,11.27
2017-09-02T18:41:13.507Z,15.33
2017-09-02T18:43:41.110Z,14.73
2017-09-02T18:46:08.806Z,12.00
2017-09-02T18:48:36.365Z,13.30
2017-09-02T18:51:04.062Z,14.37
2017-09-02T18:53:31.701Z,11.83
2017-09-02T18:55:59.365Z,10.97
2017-09-02T18:58:26.975Z,12.67
2017-09-02T19:00:54.588Z,11.53
2017-09-02T19:03:22.171Z,11.03
2017-09-02T19:05:50.650Z,12.60
2017-09-02T19:08:18.247Z,18.37
2017-09-02T19:10:45.847Z,15.97
2017-09-02T19:13:13.446Z,17.23
2017-09-02T19:15:41.064Z,17.50
2017-09-02T19:18:08.637Z,19.97
2017-09-02T19:20:36.226Z,14.00
2017-09-02T19:23:03.836Z,16.00
2017-09-02T19:25:31.567Z,14.03
2017-09-02T19:27:59.173Z,13.47
2017-09-02T19:30:26.763Z,13.83
2017-09-02T19:32:54.375Z,16.13
2017-09-02T19:35:21.968Z,12.67
2017-09-02T19:37:49.554Z,17.00
2017-09-02T19:40:17.163Z,12.90
2017-09-02T19:42:44.768Z,10.83
2017-09-02T19:45:12.534Z,14.10
2017-09-02T19:47:40.166Z,17.53
2017-09-02T19:50:07.758Z,12.73
2017-09-02T19:52:36.384Z,15.07
2017-09-02T19:55:04.003Z,12.70
2017-09-02T19:57:31.716Z,13.53
2017-09-02T19:59:59.485Z,12.20
2017-09-02T20:02:27.095Z,14.80
2017-09-02T20:04:54.758Z,12.83
2017-09-02T20:07:22.379Z,19.73
2017-09-02T20:09:49.992Z,13.20
2017-09-02T20:12:17.675Z,13.60
2017-09-02T20:14:45.265Z,13.30
2017-09-02T20:17:12.979Z,14.80
2017-09-02T20:19:40.576Z,13.17
2017-09-02T20:22:08.158Z,15.70
2017-09-02T20:24:35.783Z,12.40
2017-09-02T20:27:03.351Z,14.37
2017-09-02T20:29:30.952Z,22.33
2017-09-02T20:31:58.548Z,15.80
2017-09-02T20:34:26.180Z,17.63
2017-09-02T20:36:53.778Z,16.40
2017-09-02T20:39:21.460Z,16.27
2017-09-02T20:41:49.058Z,18.67
2017-09-02T20:44:16.634Z,17.73
2017-09-02T20:46:44.235Z,17.03
2017-09-02T20:49:11.983Z,17.33
2017-09-02T20:51:39.702Z,17.53
2017-09-02T20:54:07.290Z,16.57
2017-09-02T20:56:34.936Z,17.27
2017-09-02T20:59:02.544Z,19.97
2017-09-02T21:01:30.166Z,16.60
2017-09-02T21:03:57.750Z,16.87
2017-09-02T21:06:25.481Z,15.55
2017-09-02T21:08:53.078Z,18.57
2017-09-02T21:11:20.631Z,20.33
2017-09-02T21:13:48.192Z,19.13
2017-09-02T21:16:15.784Z,16.30
2017-09-02T21:18:43.375Z,17.67
2017-09-02T21:21:11.208Z,17.57
2017-09-02T21:23:38.810Z,17.83
2017-09-02T21:26:06.431Z,18.50
2017-09-02T21:28:34.052Z,25.03
2017-09-02T21:31:01.634Z,20.87
2017-09-02T21:33:29.225Z,20.90
2017-09-02T21:35:56.837Z,18.62
2017-09-02T21:38:24.419Z,17.53
2017-09-02T21:40:52.003Z,17.63
2017-09-02T21:43:19.592Z,17.05
2017-09-02T21:45:47.177Z,16.45
2017-09-02T21:48:14.757Z,17.50
2017-09-02T21:50:42.355Z,15.70
2017-09-02T21:53:09.988Z,17.47
2017-09-02T21:55:37.590Z,20.25
2017-09-02T21:58:05.222Z,21.35
2017-09-02T22:00:32.810Z,22.85
2017-09-02T22:03:00.418Z,20.33
2017-09-02T22:05:28.032Z,20.67
2017-09-02T22:07:55.623Z,18.42
2017-09-02T22:10:23.397Z,21.55
2017-09-02T22:12:50.971Z,19.40
2017-09-02T22:15:18.562Z,19.33
2017-09-02T22:17:46.185Z,22.55
2017-09-02T22:20:13.775Z,20.10
2017-09-02T22:22:41.467Z,20.27
2017-09-02T22:25:09.079Z,19.15
2017-09-02T22:27:36.653Z,20.88
2017-09-02T22:30:04.219Z,20.90
2017-09-02T22:32:31.823Z,23.95
2017-09-02T22:34:59.425Z,20.80
2017-09-02T22:37:27.052Z,19.95
2017-09-02T22:39:54.826Z,25.55
2017-09-02T22:42:22.608Z,19.50
2017-09-02T22:44:50.195Z,19.33
2017-09-02T22:47:17.993Z,22.60
2017-09-02T22:49:45.656Z,23.17
2017-09-02T22:52:13.294Z,20.20
2017-09-02T22:54:40.860Z,20.20
2017-09-02T22:57:08.477Z,19.08
2017-09-02T22:59:36.043Z,17.20
2017-09-02T23:02:03.642Z,17.98
2017-09-02T23:04:31.276Z,19.35
2017-09-02T23:06:58.874Z,18.58
2017-09-02T23:09:26.470Z,21.37
2017-09-02T23:11:54.092Z,22.00
2017-09-02T23:14:21.657Z,17.85
2017-09-02T23:16:49.304Z,18.98
2017-09-02T23:19:16.870Z,20.27
2017-09-02T23:21:44.455Z,20.77
2017-09-02T23:24:12.029Z,19.40
2017-09-02T23:26:39.598Z,21.25
2017-09-02T23:29:07.190Z,18.37
2017-09-02T23:31:34.778Z,19.02
2017-09-02T23:34:02.371Z,25.55
2017-09-02T23:36:29.950Z,21.25
2017-09-02T23:38:57.561Z,22.33
2017-09-02T23:41:25.293Z,18.52
2017-09-02T23:43:52.852Z,18.37
2017-09-02T23:46:20.422Z,17.40
2017-09-02T23:48:47.998Z,16.98
2017-09-02T23:51:15.671Z,17.27
2017-09-02T23:53:43.255Z,16.65
2017-09-02T23:56:10.830Z,17.37
2017-09-02T23:58:38.419Z,15.52
